createdAt,value
2018-05-15T00:00:02.740Z,15.60
2018-05-15T00:02:36.103Z,15.60
2018-05-15T00:05:08.747Z,15.50
2018-05-15T00:07:42.158Z,15.50
2018-05-15T00:10:15.576Z,15.40
2018-05-15T00:12:48.182Z,15.40
2018-05-15T00:15:20.845Z,15.40
2018-05-15T00:17:54.227Z,15.30
2018-05-15T00:20:26.863Z,15.30
2018-05-15T00:22:59.471Z,15.30
2018-05-15T00:25:32.123Z,15.30
2018-05-15T00:28:04.772Z,15.20
2018-05-15T00:30:37.420Z,15.20
2018-05-15T00:33:10.788Z,15.10
2018-05-15T00:35:43.439Z,15.10
2018-05-15T00:38:16.027Z,15.10
2018-05-15T00:40:48.673Z,15.00
2018-05-15T00:43:21.280Z,15.00
2018-05-15T00:45:53.958Z,14.90
2018-05-15T00:48:26.558Z,14.90
2018-05-15T00:50:59.219Z,14.90
2018-05-15T00:53:31.821Z,14.80
2018-05-15T00:56:04.467Z,14.80
2018-05-15T00:58:37.068Z,14.80
2018-05-15T01:01:09.701Z,14.80
2018-05-15T01:03:42.309Z,14.80
2018-05-15T01:06:14.923Z,14.70
2018-05-15T01:08:47.541Z,14.70
2018-05-15T01:11:20.180Z,14.70
2018-05-15T01:13:52.777Z,14.60
2018-05-15T01:16:26.172Z,14.50
2018-05-15T01:18:58.793Z,14.50
2018-05-15T01:21:31.453Z,14.40
2018-05-15T01:24:04.052Z,14.40
2018-05-15T01:26:36.687Z,14.40
2018-05-15T01:29:09.276Z,14.30
2018-05-15T01:31:41.892Z,14.30
2018-05-15T01:34:14.482Z,14.20
2018-05-15T01:36:47.119Z,14.20
2018-05-15T01:39:19.732Z,14.10
2018-05-15T01:41:52.375Z,14.10
2018-05-15T01:44:24.984Z,14.00
2018-05-15T01:46:57.618Z,14.00
2018-05-15T01:49:30.210Z,14.00
2018-05-15T01:52:02.864Z,14.00
2018-05-15T01:54:35.475Z,13.90
2018-05-15T01:57:08.856Z,13.90
2018-05-15T01:59:41.510Z,13.90
2018-05-15T02:02:14.146Z,13.90
2018-05-15T02:04:46.747Z,13.80
2018-05-15T02:07:20.130Z,13.70
2018-05-15T02:09:52.719Z,13.70
2018-05-15T02:12:25.335Z,13.70
2018-05-15T02:14:57.930Z,13.70
2018-05-15T02:17:31.343Z,13.60
2018-05-15T02:20:04.711Z,13.60
2018-05-15T02:22:37.360Z,13.50
2018-05-15T02:25:09.958Z,13.50
2018-05-15T02:27:42.589Z,13.50
2018-05-15T02:30:15.196Z,13.50
2018-05-15T02:32:47.845Z,13.40
2018-05-15T02:35:20.487Z,13.40
2018-05-15T02:37:53.162Z,13.40
2018-05-15T02:40:25.771Z,13.40
2018-05-15T02:42:58.420Z,13.40
2018-05-15T02:45:31.027Z,13.40
2018-05-15T02:48:03.696Z,13.30
2018-05-15T02:50:36.292Z,13.30
2018-05-15T02:53:08.923Z,13.30
2018-05-15T02:55:41.536Z,13.30
2018-05-15T02:58:14.175Z,13.20
2018-05-15T03:00:46.770Z,13.20
2018-05-15T03:03:19.405Z,13.20
2018-05-15T03:05:52.004Z,13.10
2018-05-15T03:08:25.479Z,13.00
2018-05-15T03:10:58.083Z,13.00
2018-05-15T03:13:30.738Z,13.00
2018-05-15T03:16:03.371Z,12.90
2018-05-15T03:18:36.018Z,12.80
2018-05-15T03:21:08.614Z,12.80
2018-05-15T03:23:41.918Z,12.70
2018-05-15T03:26:14.515Z,12.70
2018-05-15T03:28:47.169Z,12.70
2018-05-15T03:31:19.772Z,12.70
2018-05-15T03:33:52.411Z,12.70
2018-05-15T03:36:25.010Z,12.60
2018-05-15T03:38:57.655Z,12.60
2018-05-15T03:41:30.259Z,12.60
2018-05-15T03:44:02.921Z,12.60
2018-05-15T03:46:35.530Z,12.50
2018-05-15T03:49:08.158Z,12.50
2018-05-15T03:51:40.752Z,12.40
2018-05-15T03:54:13.387Z,12.40
2018-05-15T03:56:46.763Z,12.40
2018-05-15T03:59:19.386Z,12.40
2018-05-15T04:02:04.759Z,12.40
2018-05-15T04:04:50.094Z,12.30
2018-05-15T04:07:34.595Z,12.30
2018-05-15T04:10:07.244Z,12.30
2018-05-15T04:12:39.843Z,12.30
2018-05-15T04:15:12.480Z,12.30
2018-05-15T04:17:45.093Z,12.30
2018-05-15T04:20:17.738Z,12.30
2018-05-15T04:22:50.355Z,12.40
2018-05-15T04:25:22.989Z,12.30
2018-05-15T04:27:55.606Z,12.30
2018-05-15T04:30:28.226Z,12.40
2018-05-15T04:33:00.821Z,12.40
2018-05-15T04:35:33.463Z,12.40
2018-05-15T04:38:06.212Z,12.50
2018-05-15T04:40:38.853Z,12.40
2018-05-15T04:43:11.476Z,12.50
2018-05-15T04:45:44.095Z,12.50
2018-05-15T04:48:16.699Z,12.50
2018-05-15T04:50:49.339Z,12.50
2018-05-15T04:53:21.939Z,12.60
2018-05-15T04:55:54.583Z,12.60
2018-05-15T04:58:27.183Z,12.70
2018-05-15T05:00:59.793Z,12.80
2018-05-15T05:03:32.378Z,12.80
2018-05-15T05:06:05.014Z,12.90
2018-05-15T05:08:37.607Z,13.00
2018-05-15T05:11:10.248Z,13.10
2018-05-15T05:13:43.158Z,13.20
2018-05-15T05:16:15.803Z,13.30
2018-05-15T05:18:49.244Z,13.40
2018-05-15T05:21:21.891Z,13.40
2018-05-15T05:23:54.502Z,13.50
2018-05-15T05:26:27.160Z,13.60
2018-05-15T05:28:59.779Z,13.70
2018-05-15T05:31:32.439Z,13.80
2018-05-15T05:34:05.046Z,13.80
2018-05-15T05:36:38.455Z,14.00
2018-05-15T05:39:11.054Z,14.00
2018-05-15T05:41:44.482Z,14.10
2018-05-15T05:44:17.988Z,14.20
2018-05-15T05:46:51.375Z,14.30
2018-05-15T05:49:23.980Z,14.30
2018-05-15T05:51:56.614Z,14.40
2018-05-15T05:54:29.220Z,14.50
2018-05-15T05:57:01.863Z,14.60
2018-05-15T05:59:35.227Z,14.80
2018-05-15T06:02:07.841Z,14.80
2018-05-15T06:04:40.443Z,14.90
2018-05-15T06:07:13.080Z,15.00
2018-05-15T06:09:46.448Z,15.20
2018-05-15T06:12:19.071Z,15.20
2018-05-15T06:14:51.672Z,15.30
2018-05-15T06:17:24.291Z,15.40
2018-05-15T06:19:56.886Z,15.50
2018-05-15T06:22:29.523Z,15.60
2018-05-15T06:25:02.907Z,16.00
2018-05-15T06:27:35.609Z,15.90
2018-05-15T06:30:08.183Z,16.10
2018-05-15T06:32:40.826Z,16.20
2018-05-15T06:35:14.344Z,16.30
2018-05-15T06:37:46.987Z,16.40
2018-05-15T06:40:19.621Z,16.50
2018-05-15T06:42:52.270Z,16.60
2018-05-15T06:45:24.868Z,16.70
2018-05-15T06:47:58.275Z,16.90
2018-05-15T06:50:31.643Z,16.90
2018-05-15T06:53:04.282Z,16.90
2018-05-15T06:55:37.642Z,17.10
2018-05-15T06:58:10.259Z,17.10
2018-05-15T07:00:42.856Z,17.20
2018-05-15T07:03:15.462Z,17.30
2018-05-15T07:05:48.831Z,17.50
2018-05-15T07:08:21.472Z,17.50
2018-05-15T07:10:54.842Z,17.70
2018-05-15T07:13:27.467Z,17.60
2018-05-15T07:16:00.835Z,17.90
2018-05-15T07:18:33.475Z,17.90
2018-05-15T07:21:06.833Z,18.10
2018-05-15T07:23:39.475Z,18.10
2018-05-15T07:26:12.075Z,18.20
2018-05-15T07:28:44.703Z,18.30
2018-05-15T07:31:17.286Z,18.40
2018-05-15T07:33:49.920Z,18.50
2018-05-15T07:36:22.507Z,18.60
2018-05-15T07:38:55.148Z,18.70
2018-05-15T07:41:27.741Z,18.70
2018-05-15T07:44:01.148Z,18.90
2018-05-15T07:46:33.765Z,19.00
2018-05-15T07:49:06.402Z,19.00
2018-05-15T07:51:39.758Z,19.20
2018-05-15T07:54:12.391Z,19.20
2018-05-15T07:56:44.989Z,19.30
2018-05-15T07:59:18.551Z,19.40
2018-05-15T08:01:51.144Z,19.40
2018-05-15T08:04:23.834Z,19.60
2018-05-15T08:06:56.410Z,19.70
2018-05-15T08:09:29.023Z,19.70
2018-05-15T08:12:01.615Z,19.90
2018-05-15T08:14:34.231Z,20.00
2018-05-15T08:17:06.833Z,20.10
2018-05-15T08:19:39.454Z,20.20
2018-05-15T08:22:12.115Z,20.30
2018-05-15T08:24:44.773Z,20.40
2018-05-15T08:27:17.374Z,20.50
2018-05-15T08:29:50.004Z,20.60
2018-05-15T08:32:22.611Z,20.70
2018-05-15T08:34:55.246Z,20.70
2018-05-15T08:37:27.902Z,20.90
2018-05-15T08:40:00.495Z,21.00
2018-05-15T08:42:33.110Z,21.20
2018-05-15T08:45:05.751Z,21.30
2018-05-15T08:47:38.387Z,21.40
2018-05-15T08:50:11.019Z,21.50
2018-05-15T08:52:43.611Z,21.50
2018-05-15T08:55:16.235Z,21.70
2018-05-15T08:57:48.828Z,21.80
2018-05-15T09:00:21.468Z,21.90
2018-05-15T09:02:54.079Z,22.00
2018-05-15T09:05:27.487Z,22.20
2018-05-15T09:08:00.082Z,22.20
2018-05-15T09:10:32.715Z,22.30
2018-05-15T09:13:05.311Z,22.40
2018-05-15T09:15:37.935Z,22.60
2018-05-15T09:18:10.534Z,22.80
2018-05-15T09:20:43.168Z,23.00
2018-05-15T09:23:15.769Z,23.10
2018-05-15T09:25:48.383Z,23.20
2018-05-15T09:28:21.009Z,23.40
2018-05-15T09:30:53.625Z,23.60
2018-05-15T09:33:26.216Z,23.70
2018-05-15T09:35:58.855Z,23.80
2018-05-15T09:38:31.462Z,23.90
2018-05-15T09:41:04.108Z,24.10
2018-05-15T09:46:44.085Z,24.50
2018-05-15T09:49:20.991Z,24.70
2018-05-15T09:51:53.627Z,24.70
2018-05-15T09:54:26.230Z,24.90
2018-05-15T09:56:58.868Z,25.00
2018-05-15T09:59:31.450Z,25.10
2018-05-15T10:02:04.107Z,25.20
2018-05-15T10:04:36.711Z,25.40
2018-05-15T10:07:10.114Z,25.60
2018-05-15T10:09:42.715Z,25.60
2018-05-15T10:12:16.113Z,25.80
2018-05-15T10:14:48.716Z,25.80
2018-05-15T10:17:22.128Z,26.20
2018-05-15T10:19:54.784Z,26.20
2018-05-15T10:22:27.360Z,26.30
2018-05-15T10:24:59.964Z,26.40
2018-05-15T10:27:32.610Z,26.50
2018-05-15T10:30:05.332Z,26.60
2018-05-15T10:32:37.882Z,26.80
2018-05-15T10:35:11.239Z,27.50
2018-05-15T10:37:43.855Z,27.40
2018-05-15T10:40:16.459Z,27.70
2018-05-15T10:42:49.099Z,27.80
2018-05-15T10:45:21.695Z,27.70
2018-05-15T10:47:54.306Z,27.60
2018-05-15T10:50:26.897Z,27.50
2018-05-15T10:52:59.537Z,27.10
2018-05-15T10:55:32.893Z,26.70
2018-05-15T10:58:05.537Z,26.70
2018-05-15T11:00:38.140Z,26.50
2018-05-15T11:03:17.404Z,26.30
2018-05-15T11:05:50.009Z,26.30
2018-05-15T11:08:22.647Z,26.30
2018-05-15T11:10:55.230Z,26.20
2018-05-15T11:13:28.643Z,26.00
2018-05-15T11:16:02.013Z,25.90
2018-05-15T11:18:41.946Z,25.90
2018-05-15T11:21:26.419Z,25.90
2018-05-15T11:27:14.249Z,25.50
2018-05-15T11:29:46.895Z,25.50
2018-05-15T11:32:19.492Z,25.40
2018-05-15T11:34:52.202Z,25.40
2018-05-15T11:37:24.810Z,25.40
2018-05-15T11:39:57.460Z,25.40
2018-05-15T11:42:30.209Z,25.50
2018-05-15T11:45:02.824Z,25.70
2018-05-15T11:47:36.502Z,25.90
2018-05-15T11:50:09.448Z,25.90
2018-05-15T11:52:42.001Z,26.00
2018-05-15T11:55:14.149Z,26.10
2018-05-15T11:57:46.827Z,26.20
2018-05-15T12:00:19.399Z,26.30
2018-05-15T12:02:52.002Z,26.20
2018-05-15T12:05:24.646Z,26.00
2018-05-15T12:07:57.286Z,25.90
2018-05-15T12:10:30.070Z,26.00
2018-05-15T12:13:03.435Z,25.70
2018-05-15T12:15:36.067Z,25.70
2018-05-15T12:18:08.665Z,25.70
2018-05-15T12:20:41.316Z,25.70
2018-05-15T12:23:13.911Z,25.80
2018-05-15T12:25:46.558Z,25.80
2018-05-15T12:28:19.165Z,25.90
2018-05-15T12:30:51.842Z,25.80
2018-05-15T12:33:24.449Z,25.80
2018-05-15T12:35:57.177Z,25.90
2018-05-15T12:38:29.757Z,25.90
2018-05-15T12:41:02.387Z,26.00
2018-05-15T12:43:34.991Z,25.80
2018-05-15T12:46:07.611Z,25.60
2018-05-15T12:48:40.295Z,25.20
2018-05-15T12:51:13.643Z,24.30
2018-05-15T12:53:46.237Z,24.30
2018-05-15T12:56:18.870Z,24.00
2018-05-15T12:58:51.477Z,23.80
2018-05-15T13:01:27.371Z,23.40
2018-05-15T13:03:59.971Z,23.10
2018-05-15T13:06:32.620Z,22.90
2018-05-15T13:09:06.063Z,22.70
2018-05-15T13:11:38.704Z,22.60
2018-05-15T13:14:11.319Z,22.50
2018-05-15T13:16:43.934Z,22.30
2018-05-15T13:19:16.536Z,22.10
2018-05-15T13:21:49.199Z,21.90
2018-05-15T13:24:21.832Z,21.80
2018-05-15T13:26:54.465Z,21.70
2018-05-15T13:29:27.181Z,21.80
2018-05-15T13:31:59.823Z,21.90
2018-05-15T13:34:32.427Z,21.90
2018-05-15T13:37:05.103Z,21.90
2018-05-15T13:39:38.484Z,21.90
2018-05-15T13:42:11.156Z,21.90
2018-05-15T13:44:43.767Z,21.90
2018-05-15T13:47:16.433Z,22.00
2018-05-15T13:49:49.069Z,22.00
2018-05-15T13:52:21.712Z,22.00
2018-05-15T13:54:54.327Z,22.00
2018-05-15T13:57:26.960Z,21.90
2018-05-15T13:59:59.591Z,21.90
2018-05-15T14:02:32.214Z,21.80
2018-05-15T14:05:04.805Z,21.80
2018-05-15T14:07:37.479Z,21.80
2018-05-15T14:10:10.129Z,21.70
2018-05-15T14:12:42.782Z,21.70
2018-05-15T14:15:15.384Z,21.70
2018-05-15T14:17:48.050Z,21.60
2018-05-15T14:20:20.655Z,21.60
2018-05-15T14:22:53.296Z,21.60
2018-05-15T14:25:26.658Z,21.60
2018-05-15T14:27:59.295Z,21.50
2018-05-15T14:30:31.883Z,21.30
2018-05-15T14:33:04.528Z,21.00
2018-05-15T14:35:37.127Z,20.60
2018-05-15T14:38:09.747Z,20.20
2018-05-15T14:40:42.344Z,19.60
2018-05-15T14:43:27.179Z,19.10
2018-05-15T14:45:59.791Z,18.50
2018-05-15T14:48:33.220Z,17.70
2018-05-15T14:54:17.868Z,17.30
2018-05-15T14:56:50.453Z,17.00
2018-05-15T14:59:23.086Z,16.90
2018-05-15T15:01:55.681Z,16.70
2018-05-15T15:04:28.294Z,16.50
2018-05-15T15:07:00.900Z,16.30
2018-05-15T15:09:33.516Z,16.30
2018-05-15T15:12:06.110Z,16.20
2018-05-15T15:14:38.727Z,16.10
2018-05-15T15:17:11.332Z,16.00
2018-05-15T15:19:44.728Z,16.10
2018-05-15T15:22:17.327Z,16.00
2018-05-15T15:24:49.960Z,16.10
2018-05-15T15:27:22.563Z,16.20
2018-05-15T15:29:55.196Z,16.40
2018-05-15T15:32:27.781Z,16.50
2018-05-15T15:35:00.411Z,16.70
2018-05-15T15:37:33.007Z,16.80
2018-05-15T15:40:05.732Z,17.00
2018-05-15T15:42:38.348Z,17.00
2018-05-15T15:45:11.837Z,17.20
2018-05-15T15:47:44.695Z,17.20
2018-05-15T15:50:24.647Z,17.30
2018-05-15T15:52:57.328Z,17.40
2018-05-15T15:55:30.781Z,17.50
2018-05-15T15:58:03.501Z,17.50
2018-05-15T16:00:36.246Z,17.60
2018-05-15T16:03:09.680Z,17.60
2018-05-15T16:05:42.302Z,17.60
2018-05-15T16:08:14.920Z,17.70
2018-05-15T16:10:48.336Z,17.80
2018-05-15T16:13:21.783Z,17.90
2018-05-15T16:15:54.453Z,17.80
2018-05-15T16:18:27.271Z,17.90
2018-05-15T16:21:00.261Z,18.00
2018-05-15T16:23:32.909Z,18.00
2018-05-15T16:26:05.555Z,18.10
2018-05-15T16:28:38.242Z,18.10
2018-05-15T16:31:10.902Z,18.10
2018-05-15T16:33:43.912Z,18.10
2018-05-15T16:36:16.558Z,18.20
2018-05-15T16:38:49.265Z,18.20
2018-05-15T16:41:21.904Z,18.20
2018-05-15T16:43:54.557Z,18.20
2018-05-15T16:46:27.970Z,18.30
2018-05-15T16:49:00.575Z,18.20
2018-05-15T16:51:33.211Z,18.30
2018-05-15T16:54:05.799Z,18.30
2018-05-15T16:56:39.204Z,18.30
2018-05-15T16:59:11.799Z,18.30
2018-05-15T17:01:45.447Z,18.20
2018-05-15T17:04:18.043Z,18.20
2018-05-15T17:06:50.659Z,18.10
2018-05-15T17:09:24.027Z,18.10
2018-05-15T17:11:56.714Z,18.00
2018-05-15T17:14:29.321Z,18.00
2018-05-15T17:17:01.971Z,17.90
2018-05-15T17:19:34.567Z,17.90
2018-05-15T17:22:07.246Z,17.90
2018-05-15T17:24:39.839Z,17.80
2018-05-15T17:27:12.451Z,17.80
2018-05-15T17:29:45.050Z,17.80
2018-05-15T17:32:17.675Z,17.80
2018-05-15T17:34:50.263Z,17.80
2018-05-15T17:37:22.891Z,17.80
2018-05-15T17:39:55.491Z,17.70
2018-05-15T17:42:28.179Z,17.70
2018-05-15T17:45:00.770Z,17.70
2018-05-15T17:47:33.392Z,17.70
2018-05-15T17:50:05.986Z,17.70
2018-05-15T17:52:38.700Z,17.70
2018-05-15T17:55:11.252Z,17.60
2018-05-15T17:57:43.890Z,17.40
2018-05-15T18:00:16.480Z,17.10
2018-05-15T18:02:49.115Z,16.90
2018-05-15T18:05:21.707Z,16.70
2018-05-15T18:07:54.381Z,16.60
2018-05-15T18:10:27.447Z,16.60
2018-05-15T18:13:00.095Z,16.50
2018-05-15T18:15:32.678Z,16.50
2018-05-15T18:18:05.291Z,16.40
2018-05-15T18:20:37.893Z,16.30
2018-05-15T18:23:10.527Z,16.10
2018-05-15T18:25:43.887Z,15.90
2018-05-15T18:28:16.539Z,15.90
2018-05-15T18:30:49.150Z,15.80
2018-05-15T18:33:21.786Z,15.70
2018-05-15T18:35:54.379Z,15.70
2018-05-15T18:38:27.026Z,15.60
2018-05-15T18:40:59.631Z,15.70
2018-05-15T18:43:32.263Z,15.70
2018-05-15T18:46:04.856Z,15.70
2018-05-15T18:48:37.523Z,15.70
2018-05-15T18:51:10.128Z,15.70
2018-05-15T18:53:42.767Z,15.70
2018-05-15T18:56:15.379Z,15.70
2018-05-15T18:58:48.054Z,15.80
2018-05-15T19:01:20.832Z,15.80
2018-05-15T19:03:53.833Z,15.80
2018-05-15T19:06:27.199Z,15.90
2018-05-15T19:08:59.901Z,15.90
2018-05-15T19:11:32.654Z,15.90
2018-05-15T19:14:05.656Z,15.90
2018-05-15T19:16:38.431Z,15.90
2018-05-15T19:19:11.183Z,16.00
2018-05-15T19:21:43.744Z,16.00
2018-05-15T19:24:16.406Z,16.00
2018-05-15T19:26:49.211Z,16.00
2018-05-15T19:29:21.991Z,15.90
2018-05-15T19:31:55.389Z,15.90
2018-05-15T19:34:28.991Z,15.90
2018-05-15T19:37:07.295Z,15.90
2018-05-15T19:39:44.142Z,15.90
2018-05-15T19:42:16.854Z,15.80
2018-05-15T19:44:49.599Z,15.80
2018-05-15T19:47:22.236Z,15.80
2018-05-15T19:49:54.881Z,15.70
2018-05-15T19:52:27.479Z,15.70
2018-05-15T19:55:00.875Z,15.50
2018-05-15T19:57:33.465Z,15.50
2018-05-15T20:00:06.107Z,15.30
2018-05-15T20:02:38.710Z,15.20
2018-05-15T20:05:11.339Z,15.20
2018-05-15T20:07:43.929Z,15.10
2018-05-15T20:10:16.556Z,15.10
2018-05-15T20:12:49.915Z,15.00
2018-05-15T20:15:22.675Z,15.00
2018-05-15T20:17:55.187Z,15.00
2018-05-15T20:20:27.836Z,14.90
2018-05-15T20:23:00.435Z,14.90
2018-05-15T20:25:33.069Z,14.90
2018-05-15T20:28:05.658Z,14.80
2018-05-15T20:30:38.291Z,14.80
2018-05-15T20:33:10.884Z,14.80
2018-05-15T20:35:44.293Z,14.80
2018-05-15T20:38:16.898Z,14.70
2018-05-15T20:40:49.567Z,14.80
2018-05-15T20:43:22.937Z,14.80
2018-05-15T20:45:55.604Z,14.80
2018-05-15T20:48:28.194Z,14.80
2018-05-15T20:51:00.822Z,14.90
2018-05-15T20:53:33.435Z,14.80
2018-05-15T20:56:06.061Z,14.80
2018-05-15T20:58:39.427Z,14.80
2018-05-15T21:01:12.051Z,14.80
2018-05-15T21:03:45.407Z,14.80
2018-05-15T21:06:18.034Z,14.70
2018-05-15T21:08:50.628Z,14.80
2018-05-15T21:11:23.259Z,14.70
2018-05-15T21:13:55.852Z,14.70
2018-05-15T21:16:28.476Z,14.60
2018-05-15T21:19:01.069Z,14.60
2018-05-15T21:21:33.685Z,14.60
2018-05-15T21:24:06.266Z,14.60
2018-05-15T21:26:38.935Z,14.60
2018-05-15T21:29:11.532Z,14.60
2018-05-15T21:31:44.188Z,14.60
2018-05-15T21:34:16.791Z,14.60
2018-05-15T21:36:49.469Z,14.50
2018-05-15T21:39:22.043Z,14.50
2018-05-15T21:41:54.688Z,14.50
2018-05-15T21:44:27.287Z,14.40
2018-05-15T21:47:00.242Z,14.30
2018-05-15T21:49:33.615Z,14.10
2018-05-15T21:52:06.254Z,14.10
2018-05-15T21:54:38.843Z,14.00
2018-05-15T21:57:11.475Z,13.90
2018-05-15T21:59:44.068Z,13.80
2018-05-15T22:02:16.712Z,13.70
2018-05-15T22:04:49.325Z,13.70
2018-05-15T22:07:21.957Z,13.70
2018-05-15T22:09:55.310Z,13.60
2018-05-15T22:12:39.869Z,13.60
2018-05-15T22:15:24.116Z,13.60
2018-05-15T22:18:09.226Z,13.50
2018-05-15T22:20:53.660Z,13.50
2018-05-15T22:23:26.558Z,13.50
2018-05-15T22:25:59.920Z,13.50
2018-05-15T22:28:32.538Z,13.50
2018-05-15T22:31:05.134Z,13.60
2018-05-15T22:33:37.757Z,13.60
2018-05-15T22:36:10.360Z,13.60
2018-05-15T22:38:42.988Z,13.70
2018-05-15T22:41:15.591Z,13.70
2018-05-15T22:43:48.224Z,13.70
2018-05-15T22:46:20.826Z,13.70
2018-05-15T22:48:53.500Z,13.70
2018-05-15T22:51:26.874Z,13.80
2018-05-15T22:53:59.519Z,13.70
2018-05-15T22:56:32.116Z,13.70
2018-05-15T22:59:04.750Z,13.70
2018-05-15T23:01:37.348Z,13.70
2018-05-15T23:04:09.987Z,13.60
2018-05-15T23:06:42.609Z,13.60
2018-05-15T23:09:15.266Z,13.50
2018-05-15T23:11:47.863Z,13.50
2018-05-15T23:14:20.499Z,13.50
2018-05-15T23:16:53.143Z,13.50
2018-05-15T23:19:25.788Z,13.50
2018-05-15T23:21:58.391Z,13.50
2018-05-15T23:24:31.775Z,13.50
2018-05-15T23:27:04.381Z,13.40
2018-05-15T23:29:37.028Z,13.40
2018-05-15T23:32:09.624Z,13.40
2018-05-15T23:34:42.266Z,13.30
2018-05-15T23:37:14.859Z,13.30
2018-05-15T23:39:48.258Z,13.20
2018-05-15T23:42:20.856Z,13.20
2018-05-15T23:44:53.471Z,13.20
2018-05-15T23:47:26.071Z,13.20
2018-05-15T23:49:58.689Z,13.20
2018-05-15T23:52:31.306Z,13.20
2018-05-15T23:55:04.049Z,13.20
2018-05-15T23:57:36.784Z,13.20
